Orange City, IA (51041)

6:39 AM CDT on April 23, 2018 (GMT -0500)
NWC Rec Center | | Change Station
Active Advisory: Flood Warning

Elev 1411 ft 43.00 °N, 96.06 °W | Updated 0 second ago

Clear
Clear
39.8 °F
Feels Like 37 °F
N
3.7
Wind Variable Wind from ENE
Gusts 3.7 mph

Today
High -- | Low -- °F
--% Chance of Precip.
Yesterday
High -- | Low -- °F
Precip. -- in
Pressure 30.21 in
Visibility 10.0 miles
Clouds Clear
Windchill 37 °F
Dew Point 40 °F
Humidity 99%
Rainfall 0.00 in
Snow Depth Not available.
6:29 AM 8:16 PM
First Quarter, 57% visible
METAR KORC 231135Z AUTO 09005KT 10SM CLR 05/03 A3021 RMK AO2
Pressure 30.21 in
Visibility 10.0 miles
Clouds Clear
Windchill 37 °F
Dew Point 40 °F
Humidity 99%
Rainfall 0.00 in
Snow Depth Not available.
6:29 AM 8:16 PM
First Quarter, 57% visible
METAR KORC 231135Z AUTO 09005KT 10SM CLR 05/03 A3021 RMK AO2

Get Your Daily Forecast Email!

Thanks for signing up!

Be on the lookout for a verification email in your inbox.

You'll start receiving severe weather alerts in your inbox..

×

10-Day Weather Forecast

Almanac

Astronomy

Apr. 23, 2018 Rise Set
Actual Time
Civil Twilight
Nautical Twilight
Astronomical Twilight
Moon
Length of Visible Light
Length of Day
Tomorrow will be .
, % of the Moon is Illuminated

Today's Extremes

State Highs State Lows

Community

WunderPhotos

Category 6

Welcome to Category 6. This is the collective home for Weather Underground's featured writeups by Dr. Jeff Masters (right), Bob Henson (left), Chris Burt, and other regular contributors.

Nearby

Air Quality

  Air Quality AQ Index Pollutant
Not available.

Snow Depth

Station Depth Elevation

Earthquake Activity

City Distance Mag. Time & Date
Minimum magnitude displayed is 2.5.

Coastal Water Temperatures

Place Temperature

Stations

Nearby Weather Stations

Station Location Temp. Windchill Dew Point Humidity Wind Precip. Elev Updated Type
                   

Watches & Warnings

Flood Warning
Issued: 12:02 PM CDT Apr. 22, 2018 – National Weather Service

The Flood Warning continues for
the Big Sioux River above Hawarden.
* Until late Thursday night.
* At 10 am Sunday the stage was 22.6 feet.
* Minor flooding is occurring and minor flooding is forecast.
* Flood stage is 20.5 feet.
* Forecast... the river will rise to 23.2 feet by Monday April 23.
* At stages near 23.0 feet... South Dakota Highway 46 begins to flood.



Lat... Lon 4331 9663 4331 9651 4314 9641 4303 9647
          4303 9654 4312 9654